createdAt,value
2017-12-11T00:02:21.550Z,1.40
2017-12-11T00:04:49.451Z,1.40
2017-12-11T00:07:17.383Z,1.40
2017-12-11T00:09:45.252Z,1.50
2017-12-11T00:12:13.143Z,1.40
2017-12-11T00:14:41.051Z,1.40
2017-12-11T00:17:09.003Z,1.40
2017-12-11T00:19:38.291Z,1.50
2017-12-11T00:22:06.396Z,1.60
2017-12-11T00:24:35.035Z,1.70
2017-12-11T00:27:03.747Z,1.60
2017-12-11T00:29:31.676Z,1.60
2017-12-11T00:31:59.649Z,1.60
2017-12-11T00:34:27.600Z,1.60
2017-12-11T00:36:55.546Z,1.60
2017-12-11T00:39:23.459Z,1.60
2017-12-11T00:41:51.371Z,1.60
2017-12-11T00:44:19.714Z,1.50
2017-12-11T00:46:47.663Z,1.50
2017-12-11T00:49:15.633Z,1.50
2017-12-11T00:51:43.570Z,1.60
2017-12-11T00:54:11.499Z,1.70
2017-12-11T00:56:39.423Z,1.80
2017-12-11T00:59:08.106Z,1.80
2017-12-11T01:01:36.731Z,1.80
2017-12-11T01:04:04.690Z,1.90
2017-12-11T01:06:32.964Z,1.80
2017-12-11T01:09:00.942Z,1.80
2017-12-11T01:11:28.968Z,1.70
2017-12-11T01:13:57.644Z,1.70
2017-12-11T01:16:25.548Z,1.70
2017-12-11T01:18:53.462Z,1.60
2017-12-11T01:21:21.411Z,1.60
2017-12-11T01:23:49.319Z,1.70
2017-12-11T01:26:17.955Z,1.80
2017-12-11T01:28:46.159Z,1.80
2017-12-11T01:31:14.203Z,1.70
2017-12-11T01:33:42.117Z,1.80
2017-12-11T01:36:10.010Z,1.70
2017-12-11T01:38:38.031Z,1.70
2017-12-11T01:41:06.071Z,1.70
2017-12-11T01:43:34.026Z,1.70
2017-12-11T01:46:05.479Z,1.70
2017-12-11T01:48:33.732Z,1.70
2017-12-11T01:51:01.692Z,1.60
2017-12-11T01:53:29.603Z,1.70
2017-12-11T01:55:57.486Z,1.70
2017-12-11T01:58:25.379Z,1.60
2017-12-11T02:00:53.300Z,1.60
2017-12-11T02:03:21.186Z,1.60
2017-12-11T02:05:49.130Z,1.60
2017-12-11T02:08:17.002Z,1.60
2017-12-11T02:10:44.943Z,1.60
2017-12-11T02:13:13.433Z,1.60
2017-12-11T02:15:41.375Z,1.60
2017-12-11T02:18:09.299Z,1.60
2017-12-11T02:20:37.321Z,1.60
2017-12-11T02:23:05.255Z,1.50
2017-12-11T02:25:33.203Z,1.60
2017-12-11T02:28:01.151Z,1.70
2017-12-11T02:30:29.232Z,1.60
2017-12-11T02:32:57.202Z,1.60
2017-12-11T02:35:25.195Z,1.60
2017-12-11T02:37:53.450Z,1.60
2017-12-11T02:40:21.366Z,1.70
2017-12-11T02:42:49.296Z,1.60
2017-12-11T02:45:17.254Z,1.60
2017-12-11T02:47:45.208Z,1.70
2017-12-11T02:50:13.402Z,1.90
2017-12-11T02:52:41.371Z,1.90
2017-12-11T02:55:09.319Z,1.80
2017-12-11T02:57:38.227Z,1.80
2017-12-11T03:00:06.940Z,1.60
2017-12-11T03:02:35.023Z,1.50
2017-12-11T03:05:02.990Z,1.50
2017-12-11T03:07:30.911Z,1.60
2017-12-11T03:09:59.711Z,1.70
2017-12-11T03:12:27.698Z,1.90
2017-12-11T03:14:55.947Z,1.90
2017-12-11T03:17:23.935Z,1.90
2017-12-11T03:19:51.852Z,2.00
2017-12-11T03:22:19.779Z,1.90
2017-12-11T03:24:47.713Z,1.80
2017-12-11T03:27:15.620Z,1.80
2017-12-11T03:29:43.540Z,1.80
2017-12-11T03:32:12.194Z,1.90
2017-12-11T03:34:40.119Z,1.80
2017-12-11T03:37:08.827Z,1.70
2017-12-11T03:39:37.103Z,1.60
2017-12-11T03:42:05.760Z,1.60
2017-12-11T03:44:35.141Z,1.50
2017-12-11T03:47:03.127Z,1.40
2017-12-11T03:49:31.814Z,1.40
2017-12-11T03:52:00.467Z,1.40
2017-12-11T03:54:28.433Z,1.40
2017-12-11T03:56:56.336Z,1.30
2017-12-11T03:59:24.259Z,1.30
2017-12-11T04:01:52.467Z,1.30
2017-12-11T04:04:20.382Z,1.30
2017-12-11T04:06:48.328Z,1.20
2017-12-11T04:09:16.204Z,1.30
2017-12-11T04:11:44.088Z,1.20
2017-12-11T04:14:11.971Z,1.20
2017-12-11T04:16:40.964Z,1.30
2017-12-11T04:19:08.823Z,1.40
2017-12-11T04:21:36.696Z,1.30
2017-12-11T04:24:04.563Z,1.30
2017-12-11T04:26:32.439Z,1.30
2017-12-11T04:29:00.391Z,1.40
2017-12-11T04:31:28.330Z,1.40
2017-12-11T04:33:56.212Z,1.50
2017-12-11T04:36:24.095Z,1.60
2017-12-11T04:38:51.978Z,1.70
2017-12-11T04:41:21.465Z,1.70
2017-12-11T04:43:50.335Z,1.70
2017-12-11T04:46:18.203Z,1.60
2017-12-11T04:48:46.065Z,1.70
2017-12-11T04:51:13.967Z,1.70
2017-12-11T04:53:41.879Z,1.70
2017-12-11T04:56:09.743Z,1.70
2017-12-11T04:58:37.648Z,1.70
2017-12-11T05:01:05.583Z,1.80
2017-12-11T05:03:34.257Z,1.90
2017-12-11T05:06:02.970Z,1.90
2017-12-11T05:08:32.132Z,1.80
2017-12-11T05:11:01.793Z,1.70
2017-12-11T05:13:30.136Z,1.70
2017-12-11T05:15:58.140Z,1.70
2017-12-11T05:18:26.071Z,1.60
2017-12-11T05:20:54.030Z,1.70
2017-12-11T05:23:22.047Z,1.70
2017-12-11T05:25:49.978Z,1.60
2017-12-11T05:28:17.881Z,1.80
2017-12-11T05:30:45.985Z,1.80
2017-12-11T05:33:14.235Z,1.70
2017-12-11T05:35:42.199Z,1.70
2017-12-11T05:38:10.135Z,1.70
2017-12-11T05:40:38.360Z,1.70
2017-12-11T05:43:06.556Z,1.60
2017-12-11T05:45:34.587Z,1.70
2017-12-11T05:48:02.627Z,1.70
2017-12-11T05:50:30.611Z,1.60
2017-12-11T05:52:58.574Z,1.50
2017-12-11T05:55:27.375Z,1.50
2017-12-11T05:57:55.271Z,1.50
2017-12-11T06:00:23.523Z,1.40
2017-12-11T06:02:51.470Z,1.40
2017-12-11T06:05:20.150Z,1.20
2017-12-11T06:07:48.031Z,1.20
2017-12-11T06:10:16.659Z,1.20
2017-12-11T06:12:44.553Z,1.00
2017-12-11T06:15:12.451Z,1.00
2017-12-11T06:17:41.079Z,0.80
2017-12-11T06:20:10.395Z,0.90
2017-12-11T06:22:38.383Z,1.00
2017-12-11T06:25:06.267Z,1.20
2017-12-11T06:27:34.202Z,1.40
2017-12-11T06:30:02.301Z,1.50
2017-12-11T06:32:31.682Z,1.50
2017-12-11T06:34:59.674Z,1.50
2017-12-11T06:37:29.356Z,1.60
2017-12-11T06:39:57.398Z,1.70
2017-12-11T06:42:25.314Z,1.70
2017-12-11T06:44:53.247Z,1.70
2017-12-11T06:47:21.163Z,1.60
2017-12-11T06:49:49.102Z,1.60
2017-12-11T06:52:16.979Z,1.40
2017-12-11T06:54:44.851Z,1.60
2017-12-11T06:57:12.911Z,1.60
2017-12-11T06:59:40.804Z,1.70
2017-12-11T07:02:08.747Z,1.80
2017-12-11T07:04:36.639Z,1.90
2017-12-11T07:07:06.031Z,2.00
2017-12-11T07:09:34.284Z,1.90
2017-12-11T07:12:02.176Z,1.80
2017-12-11T07:14:30.191Z,1.70
2017-12-11T07:16:58.843Z,1.70
2017-12-11T07:19:26.877Z,1.80
2017-12-11T07:21:55.175Z,1.70
2017-12-11T07:24:23.075Z,1.70
2017-12-11T07:26:51.789Z,1.70
2017-12-11T07:29:19.711Z,1.70
2017-12-11T07:31:47.715Z,1.70
2017-12-11T07:34:15.630Z,1.80
2017-12-11T07:36:43.583Z,1.90
2017-12-11T07:39:11.493Z,1.90
2017-12-11T07:41:40.143Z,2.00
2017-12-11T07:44:08.174Z,2.10
2017-12-11T07:46:36.058Z,2.20
2017-12-11T07:49:04.129Z,2.30
2017-12-11T07:51:32.040Z,2.40
2017-12-11T07:54:00.051Z,2.60
2017-12-11T07:56:42.927Z,2.50
2017-12-11T07:59:10.810Z,2.50
2017-12-11T08:01:39.027Z,2.50
2017-12-11T08:04:06.931Z,2.60
2017-12-11T08:06:35.566Z,2.70
2017-12-11T08:09:04.280Z,2.60
2017-12-11T08:11:32.452Z,2.60
2017-12-11T08:14:00.448Z,2.50
2017-12-11T08:16:28.407Z,2.30
2017-12-11T08:18:56.358Z,2.40
2017-12-11T08:21:24.354Z,2.50
2017-12-11T08:23:52.507Z,2.50
2017-12-11T08:26:20.532Z,2.50
2017-12-11T08:28:49.921Z,2.40
2017-12-11T08:31:18.616Z,2.50
2017-12-11T08:33:47.312Z,2.70
2017-12-11T08:36:15.991Z,2.80
2017-12-11T08:38:43.939Z,2.80
2017-12-11T08:41:11.959Z,2.90
2017-12-11T08:43:39.871Z,2.90
2017-12-11T08:46:08.128Z,3.00
2017-12-11T08:48:36.223Z,2.90
2017-12-11T08:51:04.625Z,3.00
2017-12-11T08:53:33.515Z,3.00
2017-12-11T08:56:01.447Z,3.10
2017-12-11T08:58:29.771Z,3.20
2017-12-11T09:01:01.003Z,3.30
2017-12-11T09:03:28.967Z,3.20
2017-12-11T09:05:56.888Z,3.20
2017-12-11T09:08:24.811Z,3.30
2017-12-11T09:10:52.687Z,3.30
2017-12-11T09:13:22.029Z,3.30
2017-12-11T09:15:50.169Z,3.30
2017-12-11T09:18:18.181Z,3.40
2017-12-11T09:20:46.154Z,3.30
2017-12-11T09:23:14.111Z,3.30
2017-12-11T09:25:42.198Z,3.40
2017-12-11T09:28:10.139Z,3.40
2017-12-11T09:30:38.136Z,3.30
2017-12-11T09:33:06.052Z,3.30
2017-12-11T09:35:34.908Z,3.30
2017-12-11T09:38:03.412Z,3.30
2017-12-11T09:40:32.547Z,3.40
2017-12-11T09:43:00.474Z,3.40
2017-12-11T09:45:29.955Z,3.60
2017-12-11T09:47:57.940Z,3.60
2017-12-11T09:50:25.956Z,3.70
2017-12-11T09:52:54.017Z,3.70
2017-12-11T09:55:21.960Z,3.70
2017-12-11T09:57:50.747Z,3.50
2017-12-11T10:00:18.823Z,3.40
2017-12-11T10:02:47.070Z,3.40
2017-12-11T10:05:15.379Z,3.40
2017-12-11T10:07:43.406Z,3.20
2017-12-11T10:10:11.719Z,3.30
2017-12-11T10:12:39.695Z,3.00
2017-12-11T10:15:07.759Z,3.00
2017-12-11T10:17:35.751Z,3.10
2017-12-11T10:20:04.448Z,3.00
2017-12-11T10:22:32.479Z,3.20
2017-12-11T10:25:00.556Z,3.30
2017-12-11T10:27:28.560Z,3.30
2017-12-11T10:29:56.473Z,3.50
2017-12-11T10:32:39.787Z,3.60
2017-12-11T10:35:08.039Z,3.40
2017-12-11T10:37:36.356Z,3.40
2017-12-11T10:40:04.291Z,3.60
2017-12-11T10:42:32.212Z,3.60
2017-12-11T10:45:00.235Z,3.60
2017-12-11T10:47:28.171Z,3.70
2017-12-11T10:49:56.147Z,3.70
2017-12-11T10:52:24.079Z,3.70
2017-12-11T10:54:51.989Z,3.70
2017-12-11T10:57:20.315Z,3.60
2017-12-11T10:59:48.208Z,3.60
2017-12-11T11:02:18.819Z,3.70
2017-12-11T11:04:46.843Z,3.70
2017-12-11T11:07:14.751Z,3.70
2017-12-11T11:09:43.598Z,3.60
2017-12-11T11:12:11.750Z,3.70
2017-12-11T11:14:40.051Z,3.70
2017-12-11T11:17:08.927Z,3.80
2017-12-11T11:19:37.167Z,3.80
2017-12-11T11:22:05.640Z,3.90
2017-12-11T11:24:33.551Z,3.80
2017-12-11T11:27:01.468Z,3.90
2017-12-11T11:29:29.479Z,4.00
2017-12-11T11:31:57.414Z,3.90
2017-12-11T11:34:25.379Z,3.90
2017-12-11T11:36:53.296Z,4.00
2017-12-11T11:39:21.184Z,3.90
2017-12-11T11:41:49.848Z,3.90
2017-12-11T11:44:17.982Z,3.90
2017-12-11T11:46:46.252Z,3.80
2017-12-11T11:49:14.159Z,3.60
2017-12-11T11:51:43.118Z,3.70
2017-12-11T11:54:11.071Z,3.80
2017-12-11T11:56:38.999Z,3.80
2017-12-11T11:59:07.740Z,3.80
2017-12-11T12:01:35.781Z,3.80
2017-12-11T12:04:03.719Z,3.60
2017-12-11T12:06:31.765Z,3.60
2017-12-11T12:08:59.774Z,3.70
2017-12-11T12:11:28.191Z,3.60
2017-12-11T12:13:56.157Z,3.60
2017-12-11T12:16:24.089Z,3.60
2017-12-11T12:18:52.861Z,3.50
2017-12-11T12:21:20.852Z,3.60
2017-12-11T12:23:48.858Z,3.70
2017-12-11T12:26:16.960Z,3.70
2017-12-11T12:28:45.158Z,3.80
2017-12-11T12:31:13.081Z,3.80
2017-12-11T12:33:41.007Z,3.90
2017-12-11T12:36:09.743Z,3.90
2017-12-11T12:39:41.091Z,3.90
2017-12-11T12:42:09.286Z,3.80
2017-12-11T12:44:37.199Z,3.70
2017-12-11T12:47:05.211Z,3.70
2017-12-11T12:49:33.244Z,3.70
2017-12-11T12:52:01.986Z,3.60
2017-12-11T12:54:30.275Z,3.60
2017-12-11T12:57:00.029Z,3.60
2017-12-11T12:59:27.952Z,3.50
2017-12-11T13:01:55.855Z,3.60
2017-12-11T13:04:24.892Z,3.60
2017-12-11T13:06:52.787Z,3.70
2017-12-11T13:09:20.905Z,3.60
2017-12-11T13:11:48.950Z,3.50
2017-12-11T13:14:17.592Z,3.60
2017-12-11T13:16:45.470Z,3.60
2017-12-11T13:19:13.839Z,3.70
2017-12-11T13:21:41.719Z,3.70
2017-12-11T13:24:10.019Z,3.60
2017-12-11T13:26:37.918Z,3.60
2017-12-11T13:29:05.895Z,3.60
2017-12-11T13:31:33.883Z,3.60
2017-12-11T13:34:02.043Z,3.50
2017-12-11T13:36:29.978Z,3.50
2017-12-11T13:38:57.951Z,3.30
2017-12-11T13:41:26.784Z,3.30
2017-12-11T13:43:55.151Z,3.40
2017-12-11T13:46:23.064Z,3.40
2017-12-11T13:48:52.446Z,3.40
2017-12-11T13:51:20.583Z,2.70
2017-12-11T13:53:48.507Z,3.30
2017-12-11T13:56:16.437Z,3.20
2017-12-11T13:58:44.331Z,3.10
2017-12-11T14:01:12.303Z,3.10
2017-12-11T14:03:40.495Z,3.00
2017-12-11T14:06:08.388Z,3.00
2017-12-11T14:08:37.050Z,3.00
2017-12-11T14:11:05.399Z,3.10
2017-12-11T14:13:33.409Z,3.10
2017-12-11T14:16:01.550Z,3.00
2017-12-11T14:18:29.513Z,3.00
2017-12-11T14:20:57.707Z,2.90
2017-12-11T14:23:25.613Z,2.90
2017-12-11T14:25:53.627Z,2.80
2017-12-11T14:28:21.545Z,2.80
2017-12-11T14:30:50.686Z,2.70
2017-12-11T14:33:18.571Z,2.70
2017-12-11T14:35:46.475Z,2.80
2017-12-11T14:38:14.351Z,2.80
2017-12-11T14:40:43.057Z,2.90
2017-12-11T14:43:10.995Z,2.90
2017-12-11T14:45:39.651Z,2.90
2017-12-11T14:48:07.683Z,3.00
2017-12-11T14:50:35.596Z,2.90
2017-12-11T14:53:03.667Z,2.90
2017-12-11T14:55:31.731Z,2.90
2017-12-11T14:57:59.943Z,2.90
2017-12-11T15:00:28.639Z,3.00
2017-12-11T15:02:57.260Z,3.10
2017-12-11T15:05:25.175Z,3.20
2017-12-11T15:07:53.088Z,3.10
2017-12-11T15:10:21.382Z,3.10
2017-12-11T15:12:49.319Z,3.10
2017-12-11T15:15:17.297Z,3.20
2017-12-11T15:17:46.758Z,3.20
2017-12-11T15:20:14.948Z,3.30
2017-12-11T15:22:42.918Z,3.20
2017-12-11T15:25:10.969Z,3.30
2017-12-11T15:27:39.487Z,3.20
2017-12-11T15:30:07.728Z,3.30
2017-12-11T15:32:36.035Z,3.20
2017-12-11T15:35:05.717Z,3.20
2017-12-11T15:37:35.064Z,3.10
2017-12-11T15:40:03.199Z,3.10
2017-12-11T15:42:32.851Z,3.00
2017-12-11T15:45:01.430Z,3.00
2017-12-11T15:47:29.744Z,2.90
2017-12-11T15:49:59.354Z,3.00
2017-12-11T15:52:28.300Z,2.90
2017-12-11T15:54:56.211Z,2.80
2017-12-11T15:57:24.178Z,2.80
2017-12-11T15:59:52.197Z,2.80
2017-12-11T16:02:20.924Z,2.70
2017-12-11T16:04:49.122Z,2.70
2017-12-11T16:07:18.939Z,2.60
2017-12-11T16:09:46.934Z,2.70
2017-12-11T16:12:15.719Z,2.60
2017-12-11T16:14:44.578Z,2.50
2017-12-11T16:17:13.755Z,2.50
2017-12-11T16:19:43.216Z,2.60
2017-12-11T16:22:11.878Z,2.60
2017-12-11T16:24:39.787Z,2.70
2017-12-11T16:27:07.760Z,2.80
2017-12-11T16:29:35.891Z,2.80
2017-12-11T16:32:03.907Z,2.70
2017-12-11T16:34:32.026Z,2.60
2017-12-11T16:37:00.015Z,2.50
2017-12-11T16:39:27.988Z,2.50
2017-12-11T16:41:56.413Z,2.50
2017-12-11T16:44:24.563Z,2.40
2017-12-11T16:46:52.527Z,2.40
2017-12-11T16:49:21.220Z,2.40
2017-12-11T16:51:49.179Z,2.40
2017-12-11T16:54:17.898Z,2.20
2017-12-11T16:56:45.859Z,2.30
2017-12-11T16:59:13.791Z,2.30
2017-12-11T17:01:42.112Z,2.30
2017-12-11T17:04:10.035Z,2.20
2017-12-11T17:06:38.337Z,2.20
2017-12-11T17:09:06.973Z,2.10
2017-12-11T17:11:35.001Z,2.20
2017-12-11T17:14:03.207Z,2.30
2017-12-11T17:16:32.480Z,2.40
2017-12-11T17:19:01.475Z,2.40
2017-12-11T17:21:29.393Z,2.40
2017-12-11T17:23:57.675Z,2.40
2017-12-11T17:26:25.596Z,2.40
2017-12-11T17:28:53.551Z,2.30
2017-12-11T17:31:21.771Z,2.50
2017-12-11T17:33:49.815Z,2.60
2017-12-11T17:36:17.728Z,2.50
2017-12-11T17:38:46.439Z,2.60
2017-12-11T17:41:14.401Z,2.70
2017-12-11T17:43:43.440Z,2.70
2017-12-11T17:46:12.161Z,2.70
2017-12-11T17:48:40.171Z,2.70
2017-12-11T17:51:08.138Z,2.60
2017-12-11T17:53:36.847Z,2.60
2017-12-11T17:56:05.116Z,2.60
2017-12-11T17:58:47.079Z,2.40
2017-12-11T18:01:14.979Z,2.50
2017-12-11T18:03:42.943Z,2.50
2017-12-11T18:06:11.354Z,2.50
2017-12-11T18:08:39.336Z,2.60
2017-12-11T18:11:07.519Z,2.60
2017-12-11T18:13:35.479Z,2.50
2017-12-11T18:16:04.491Z,2.60
2017-12-11T18:18:33.907Z,2.70
2017-12-11T18:21:02.023Z,2.60
2017-12-11T18:23:30.471Z,2.60
2017-12-11T18:25:59.215Z,2.60
2017-12-11T18:28:27.156Z,2.50
2017-12-11T18:30:55.519Z,2.40
2017-12-11T18:33:23.450Z,2.50
2017-12-11T18:35:51.392Z,2.40
2017-12-11T18:38:20.063Z,2.50
2017-12-11T18:40:48.706Z,2.50
2017-12-11T18:43:16.703Z,2.60
2017-12-11T18:45:45.887Z,2.70
2017-12-11T18:48:14.552Z,2.70
2017-12-11T18:50:42.487Z,2.60
2017-12-11T18:53:10.427Z,2.60
2017-12-11T18:55:38.383Z,2.80
2017-12-11T18:58:07.206Z,2.70
2017-12-11T19:00:35.232Z,2.70
2017-12-11T19:03:03.184Z,2.70
2017-12-11T19:05:31.318Z,2.70
2017-12-11T19:07:59.240Z,2.60
2017-12-11T19:10:27.146Z,2.70
2017-12-11T19:12:55.106Z,2.70
2017-12-11T19:15:23.072Z,2.70
2017-12-11T19:17:50.991Z,2.70
2017-12-11T19:20:18.965Z,2.80
2017-12-11T19:22:47.674Z,2.80
2017-12-11T19:25:15.639Z,2.80
2017-12-11T19:27:43.908Z,2.80
2017-12-11T19:30:11.856Z,2.80
2017-12-11T19:32:39.795Z,2.70
2017-12-11T19:35:07.800Z,2.70
2017-12-11T19:37:35.815Z,2.70
2017-12-11T19:40:03.932Z,2.70
2017-12-11T19:42:32.115Z,2.70
2017-12-11T19:45:01.159Z,2.50
2017-12-11T19:47:29.984Z,2.60
2017-12-11T19:49:57.899Z,2.50
2017-12-11T19:52:26.575Z,2.60
2017-12-11T19:54:54.459Z,2.60
2017-12-11T19:57:23.119Z,2.70
2017-12-11T19:59:51.052Z,2.70
2017-12-11T20:02:18.978Z,2.70
2017-12-11T20:04:46.883Z,2.80
2017-12-11T20:07:14.876Z,2.80
2017-12-11T20:09:42.779Z,2.80
2017-12-11T20:12:10.907Z,2.70
2017-12-11T20:14:38.803Z,2.80
2017-12-11T20:17:06.869Z,2.80
2017-12-11T20:19:34.796Z,2.70
2017-12-11T20:22:03.011Z,2.80
2017-12-11T20:24:30.926Z,2.70
2017-12-11T20:26:59.139Z,2.80
2017-12-11T20:29:27.039Z,2.80
2017-12-11T20:31:54.959Z,2.90
2017-12-11T20:34:22.871Z,2.80
2017-12-11T20:36:50.768Z,2.70
2017-12-11T20:39:19.410Z,2.80
2017-12-11T20:41:47.380Z,2.80
2017-12-11T20:44:15.305Z,2.90
2017-12-11T20:46:43.203Z,2.80
2017-12-11T20:49:11.225Z,2.80
2017-12-11T20:51:39.703Z,2.80
2017-12-11T20:54:07.727Z,2.80
2017-12-11T20:56:35.628Z,2.80
2017-12-11T20:59:03.543Z,2.90
2017-12-11T21:01:31.542Z,2.90
2017-12-11T21:03:59.568Z,2.90
2017-12-11T21:06:27.495Z,2.90
2017-12-11T21:08:55.916Z,2.90
2017-12-11T21:11:23.823Z,3.00
2017-12-11T21:13:51.749Z,3.00
2017-12-11T21:16:20.476Z,3.00
2017-12-11T21:18:48.450Z,2.90
2017-12-11T21:21:16.400Z,3.00
2017-12-11T21:23:44.691Z,3.00
2017-12-11T21:26:12.655Z,3.00
2017-12-11T21:28:40.940Z,3.00
2017-12-11T21:31:08.912Z,3.00
2017-12-11T21:33:36.873Z,3.00
2017-12-11T21:36:04.900Z,3.00
2017-12-11T21:38:33.771Z,3.00
2017-12-11T21:41:02.454Z,3.00
2017-12-11T21:43:30.447Z,3.00
2017-12-11T21:45:58.434Z,2.90
2017-12-11T21:48:26.432Z,3.00
2017-12-11T21:50:54.385Z,2.90
2017-12-11T21:53:22.372Z,2.90
2017-12-11T21:55:50.544Z,2.90
2017-12-11T21:58:18.728Z,3.00
2017-12-11T22:00:46.983Z,3.00
2017-12-11T22:03:14.932Z,3.00
2017-12-11T22:05:42.870Z,2.90
2017-12-11T22:08:10.876Z,3.00
2017-12-11T22:10:39.010Z,3.00
2017-12-11T22:13:06.977Z,2.90
2017-12-11T22:15:35.181Z,2.90
2017-12-11T22:18:03.240Z,3.00
2017-12-11T22:20:31.521Z,3.00
2017-12-11T22:22:59.517Z,3.10
2017-12-11T22:25:27.838Z,2.80
2017-12-11T22:27:55.796Z,3.20
2017-12-11T22:30:23.756Z,3.10
2017-12-11T22:32:51.737Z,3.10
2017-12-11T22:35:19.705Z,3.10
2017-12-11T22:37:47.723Z,3.00
2017-12-11T22:40:16.783Z,3.10
2017-12-11T22:42:45.527Z,3.10
2017-12-11T22:45:13.847Z,3.00
2017-12-11T22:47:42.084Z,3.10
2017-12-11T22:50:10.078Z,3.10
2017-12-11T22:52:38.044Z,3.10
2017-12-11T22:55:06.150Z,3.10
2017-12-11T22:57:34.196Z,3.10
2017-12-11T23:00:02.231Z,3.10
2017-12-11T23:02:30.175Z,3.20
2017-12-11T23:04:59.270Z,3.20
2017-12-11T23:07:27.179Z,3.30
2017-12-11T23:09:55.088Z,3.30
2017-12-11T23:12:22.992Z,3.10
2017-12-11T23:14:51.699Z,3.10
2017-12-11T23:17:19.598Z,3.10
2017-12-11T23:19:47.522Z,3.00
2017-12-11T23:22:15.486Z,3.00
2017-12-11T23:24:43.758Z,3.00
2017-12-11T23:27:12.409Z,3.10
2017-12-11T23:29:40.491Z,3.10
2017-12-11T23:32:08.439Z,3.00
2017-12-11T23:34:36.371Z,3.10
2017-12-11T23:37:04.304Z,3.20
2017-12-11T23:39:32.979Z,3.20
2017-12-11T23:42:00.926Z,3.20
2017-12-11T23:44:28.829Z,3.20
2017-12-11T23:46:57.034Z,3.20
2017-12-11T23:49:25.271Z,3.30
2017-12-11T23:51:53.229Z,3.30
2017-12-11T23:54:34.142Z,3.30
2017-12-11T23:57:02.048Z,3.40
2017-12-11T23:59:30.253Z,3.40
